»·PEaware :: N208CJ KSNA-KSNA

N208CJ :: KSNA-KSNA

FLIGHT INFORMATION

Flight Status: Arrived
Operator: Privately registered:
United States
More flights under this callsign
Pilot: Christopher J. (304)
Aircraft: CESSNA 208 CARAVAN
(C208)
More flights by this aircraft type
Origin: KSNA John Wayne-Orange Co
United States
Destination: KSNA John Wayne-Orange Co
United States
More flights between these airports :: More routes between these airports
Route: SLI
File this flight plan on PilotEdge
Remarks: I-1 Rating attempt
Altitude:
(Current/Filed)
3,000ft
Speed:
(Current/Filed)
140kts
Departed: 03-Dec-18 12:25 PM
Arrived: 03-Dec-18 12:46 PM
Distance/Time
Traveled:
0nm/0:21
Distance/Time
To Go:
Arrived

Flight Plot

Page will automatically refresh every two minutes.


Map Options




Map Legend


Flown Route
Filed Route
Departure Airport
Arrival Airport
Navaid (VOR, NDB)
Fix

Horizontal Profiles

Position Reports

Time Latitude Longitude Heading Altitude Ground
Speed
03-Dec-18 12:03 33.676013 -117.871128 40 61ft 0kts
03-Dec-18 12:04 33.676013 -117.871128 40 61ft 0kts
03-Dec-18 12:05 33.676013 -117.871128 40 61ft 0kts
03-Dec-18 12:06 33.676013 -117.871128 40 61ft 0kts
03-Dec-18 12:07 33.676013 -117.871128 40 61ft 0kts
03-Dec-18 12:08 33.676013 -117.871128 40 61ft 0kts
03-Dec-18 12:09 33.676013 -117.871128 40 61ft 0kts
03-Dec-18 12:10 33.676013 -117.871128 40 61ft 0kts
03-Dec-18 12:11 33.676013 -117.871128 40 61ft 0kts
03-Dec-18 12:12 33.676013 -117.871128 40 61ft 0kts
03-Dec-18 12:13 33.676013 -117.871128 40 61ft 0kts
03-Dec-18 12:14 33.676013 -117.871128 40 61ft 0kts
03-Dec-18 12:15 33.676013 -117.871128 40 61ft 0kts
03-Dec-18 12:16 33.676013 -117.871128 40 61ft 0kts
03-Dec-18 12:17 33.676013 -117.871128 40 61ft 0kts
03-Dec-18 12:18 33.676013 -117.871128 40 61ft 0kts
03-Dec-18 12:19 33.675796 -117.870366 65 61ft 5kts
03-Dec-18 12:20 33.677584 -117.869133 26 61ft 9kts
03-Dec-18 12:21 33.679738 -117.867922 19 61ft 3kts
03-Dec-18 12:22 33.681185 -117.866948 57 61ft 2kts
03-Dec-18 12:23 33.681244 -117.866752 85 61ft 0kts
03-Dec-18 12:24 33.681244 -117.866752 85 61ft 0kts
03-Dec-18 12:25 33.681244 -117.866752 85 61ft 0kts
03-Dec-18 12:26 33.681244 -117.866752 85 61ft 0kts
03-Dec-18 12:27 33.680316 -117.865882 205 61ft 2kts
03-Dec-18 12:28 33.661888 -117.878660 217 600ft 141kts
03-Dec-18 12:29 33.637758 -117.920594 232 1467ft 149kts
03-Dec-18 12:30 33.613011 -117.960655 233 1997ft 158kts
03-Dec-18 12:31 33.614331 -118.001064 320 1995ft 144kts
03-Dec-18 12:32 33.646148 -118.031217 321 2339ft 150kts
03-Dec-18 12:33 33.681195 -118.028956 40 2879ft 150kts
03-Dec-18 12:34 33.712633 -117.995686 40 2991ft 139kts
03-Dec-18 12:35 33.740116 -117.966635 40 2995ft 130kts
03-Dec-18 12:36 33.767068 -117.937993 40 2996ft 129kts
03-Dec-18 12:37 33.796083 -117.912913 32 2994ft 128kts
03-Dec-18 12:38 33.825752 -117.889774 32 2992ft 127kts
03-Dec-18 12:39 33.855564 -117.866973 32 2990ft 127kts
03-Dec-18 12:40 33.884280 -117.843223 64 2982ft 125kts
03-Dec-18 12:41 33.873906 -117.803935 113 2991ft 127kts
03-Dec-18 12:42 33.858004 -117.765857 137 2987ft 129kts
03-Dec-18 12:43 33.822692 -117.769312 202 2996ft 134kts
03-Dec-18 12:44 33.789723 -117.790409 216 2996ft 134kts
03-Dec-18 12:45 33.760184 -117.816516 214 2968ft 117kts
03-Dec-18 12:46 33.733439 -117.831879 203 2308ft 111kts
03-Dec-18 12:47 33.701690 -117.851014 211 904ft 115kts
03-Dec-18 12:48 33.680063 -117.865958 206 69ft 73kts
03-Dec-18 12:49 33.672264 -117.871437 246 61ft 2kts
03-Dec-18 12:50 33.672133 -117.871903 254 61ft 0kts
03-Dec-18 12:51 33.672133 -117.871905 254 61ft 0kts
03-Dec-18 12:52 33.672391 -117.873204 205 61ft 1kts
03-Dec-18 12:53 33.672156 -117.873318 205 61ft 0kts

Navigation Log

Ident Type
Flight plan parsing failed, navigation log unavailable